Time;durP1;ratioP1;P1;durP2;ratioP2;P2;SDS_P1;SDS_P2;PMS_P1;PMS_P2;Temp;Humidity;BMP_temperature;BMP_pressure;BME280_temperature;BME280_humidity;BME280_pressure;Samples;Min_cycle;Max_cycle;Signal;HPM_P1;HPM_P2
2021/05/16 00:01:20;;;;;;;5.27;1.73;;;;;;;11.35;100.00;99988.16;1824298;79;26338;-74
2021/05/16 00:03:50;;;;;;;6.47;2.00;;;;;;;11.38;100.00;99994.52;1824240;79;26324;-74
2021/05/16 00:06:19;;;;;;;6.43;1.87;;;;;;;11.33;100.00;99988.49;1824274;79;26433;-74
2021/05/16 00:08:49;;;;;;;6.23;1.50;;;;;;;11.29;100.00;99986.08;1824202;79;26240;-74
2021/05/16 00:11:19;;;;;;;7.50;1.67;;;;;;;11.26;100.00;99983.90;1824250;79;26276;-74
2021/05/16 00:13:50;;;;;;;5.07;1.57;;;;;;;11.28;100.00;99982.20;1824303;79;26251;-74
2021/05/16 00:16:20;;;;;;;5.90;1.70;;;;;;;11.21;100.00;99980.42;1824239;79;26243;-74
2021/05/16 00:18:50;;;;;;;7.67;1.80;;;;;;;11.12;100.00;99978.94;1824223;79;26273;-74
2021/05/16 00:21:20;;;;;;;3.87;1.40;;;;;;;11.08;100.00;99975.70;1824276;79;26819;-74
2021/05/16 00:23:50;;;;;;;5.90;2.10;;;;;;;11.05;100.00;99979.91;1824282;79;26263;-74
2021/05/16 00:26:19;;;;;;;5.00;2.17;;;;;;;11.00;100.00;99977.22;1824313;78;26419;-73
2021/05/16 00:28:49;;;;;;;7.97;2.00;;;;;;;10.91;100.00;99977.72;1824165;79;26239;-74
2021/05/16 00:31:19;;;;;;;7.00;2.10;;;;;;;10.95;100.00;99972.59;1824310;79;26356;-74
2021/05/16 00:33:49;;;;;;;6.00;1.83;;;;;;;10.86;100.00;99978.64;1824308;79;26246;-74
2021/05/16 00:36:18;;;;;;;8.73;1.93;;;;;;;10.76;100.00;99975.22;1824194;79;26259;-74
2021/05/16 00:38:48;;;;;;;6.17;2.10;;;;;;;10.79;100.00;99978.77;1824220;79;26239;-74
2021/05/16 00:41:19;;;;;;;10.00;2.97;;;;;;;10.69;100.00;99977.03;1824223;79;26735;-74
2021/05/16 00:43:48;;;;;;;10.13;2.40;;;;;;;10.64;100.00;99978.52;1824507;79;26315;-74
2021/05/16 00:46:19;;;;;;;11.47;2.07;;;;;;;10.65;100.00;99975.17;1824491;79;26293;-74
2021/05/16 00:48:49;;;;;;;5.57;1.87;;;;;;;10.54;100.00;99975.92;1824194;79;26737;-74
2021/05/16 00:51:19;;;;;;;9.83;2.40;;;;;;;10.46;100.00;99965.52;1824301;79;26341;-74
2021/05/16 00:53:49;;;;;;;8.67;2.40;;;;;;;10.44;100.00;99964.44;1824410;79;26415;-75
2021/05/16 00:56:19;;;;;;;7.57;2.50;;;;;;;10.52;100.00;99966.27;1824207;79;26718;-74
2021/05/16 00:58:49;;;;;;;7.87;2.20;;;;;;;10.35;100.00;99962.13;1824481;79;26231;-75
2021/05/16 01:01:20;;;;;;;11.10;2.60;;;;;;;10.24;100.00;99969.53;1824220;79;26348;-75
2021/05/16 01:03:50;;;;;;;10.20;2.10;;;;;;;10.34;100.00;99966.02;1824179;79;26372;-74
2021/05/16 01:06:20;;;;;;;7.80;2.23;;;;;;;10.25;100.00;99973.41;1824158;79;26537;-74
2021/05/16 01:08:50;;;;;;;10.53;3.03;;;;;;;10.28;100.00;99974.73;1824286;79;26256;-74
2021/05/16 01:11:20;;;;;;;14.27;3.10;;;;;;;10.19;100.00;99978.77;1824288;79;26811;-74
2021/05/16 01:13:51;;;;;;;8.63;3.00;;;;;;;10.06;100.00;99976.18;1824171;79;26266;-74
2021/05/16 01:16:21;;;;;;;8.30;2.63;;;;;;;10.02;100.00;99975.70;1817948;79;26707;-74
2021/05/16 01:18:51;;;;;;;12.60;3.00;;;;;;;9.97;100.00;99975.22;1824268;79;26831;-74
2021/05/16 01:21:23;;;;;;;9.37;2.70;;;;;;;10.11;100.00;99974.44;1824272;79;26306;-75
2021/05/16 01:23:53;;;;;;;8.73;2.73;;;;;;;10.00;100.00;99973.80;1824278;79;26260;-75
2021/05/16 01:26:22;;;;;;;13.13;3.23;;;;;;;9.99;100.00;99971.59;1824412;79;26893;-75
2021/05/16 01:28:52;;;;;;;9.87;3.27;;;;;;;9.97;100.00;99970.23;1824461;79;26247;-75
2021/05/16 01:31:22;;;;;;;13.07;3.00;;;;;;;9.98;100.00;99966.34;1824254;79;26270;-75
2021/05/16 01:33:52;;;;;;;8.47;2.70;;;;;;;9.94;100.00;99966.68;1824124;79;26812;-75
2021/05/16 01:36:22;;;;;;;8.50;2.50;;;;;;;9.92;100.00;99968.39;1824116;79;26705;-75
2021/05/16 01:38:52;;;;;;;10.07;2.80;;;;;;;9.96;100.00;99971.37;1824223;79;26776;-75
2021/05/16 01:41:22;;;;;;;12.00;4.43;;;;;;;9.89;100.00;99968.98;1824175;79;26247;-75
2021/05/16 01:43:54;;;;;;;12.43;2.97;;;;;;;9.92;100.00;99965.62;1824205;79;26706;-75
2021/05/16 01:46:24;;;;;;;8.60;3.27;;;;;;;9.79;100.00;99960.84;1824253;79;26243;-75
2021/05/16 01:48:55;;;;;;;17.53;4.00;;;;;;;9.83;100.00;99959.11;1824295;79;26678;-75
2021/05/16 01:51:25;;;;;;;12.27;2.87;;;;;;;9.85;100.00;99961.56;1824167;79;26689;-76
2021/05/16 01:53:56;;;;;;;13.30;4.00;;;;;;;9.78;100.00;99961.95;1824408;79;26219;-75
2021/05/16 01:56:27;;;;;;;13.03;3.50;;;;;;;9.80;100.00;99961.63;1824257;79;26260;-75
2021/05/16 01:58:58;;;;;;;9.93;3.37;;;;;;;9.81;100.00;99958.57;1824417;79;26238;-75
2021/05/16 02:01:29;;;;;;;12.23;3.40;;;;;;;9.71;100.00;99956.54;1824263;79;26256;-75
2021/05/16 02:03:59;;;;;;;11.30;3.20;;;;;;;9.92;100.00;99950.92;1824295;79;26754;-75
2021/05/16 02:06:29;;;;;;;13.37;3.67;;;;;;;9.75;100.00;99953.42;1824294;79;26259;-75
2021/05/16 02:08:59;;;;;;;11.40;3.60;;;;;;;9.72;100.00;99952.05;1824406;79;26251;-75
2021/05/16 02:11:29;;;;;;;14.60;4.73;;;;;;;9.62;100.00;99948.63;1824360;79;26238;-75
2021/05/16 02:13:59;;;;;;;12.80;3.67;;;;;;;9.66;100.00;99946.34;1824333;79;26255;-75
2021/05/16 02:16:28;;;;;;;12.03;3.47;;;;;;;9.56;100.00;99941.77;1824353;79;26259;-75
2021/05/16 02:18:58;;;;;;;9.33;3.30;;;;;;;9.51;100.00;99943.23;1824286;79;26222;-75
2021/05/16 02:21:28;;;;;;;17.93;3.80;;;;;;;9.58;100.00;99945.64;1824322;79;26717;-75
2021/05/16 02:23:58;;;;;;;12.60;3.77;;;;;;;9.54;100.00;99943.22;1824260;79;26235;-75
2021/05/16 02:26:27;;;;;;;17.43;3.80;;;;;;;9.56;100.00;99940.39;1824227;77;26369;-75
2021/05/16 02:28:57;;;;;;;14.57;4.17;;;;;;;9.50;100.00;99949.06;1824186;79;26239;-75
2021/05/16 02:31:27;;;;;;;15.10;3.47;;;;;;;9.47;100.00;99946.34;1824332;79;26325;-75
2021/05/16 02:33:57;;;;;;;13.77;3.90;;;;;;;9.47;100.00;99942.75;1824152;79;26685;-75
2021/05/16 02:36:27;;;;;;;12.67;4.30;;;;;;;9.52;100.00;99937.95;1824393;79;26251;-75
2021/05/16 02:38:58;;;;;;;13.50;3.90;;;;;;;9.51;100.00;99934.09;1824294;79;26686;-75
2021/05/16 02:41:28;;;;;;;18.27;3.53;;;;;;;9.59;100.00;99934.80;1824220;79;26702;-75
2021/05/16 02:43:57;;;;;;;17.67;3.73;;;;;;;9.55;100.00;99935.14;1824183;79;26259;-75
2021/05/16 02:46:27;;;;;;;17.27;4.43;;;;;;;9.56;100.00;99939.00;1824154;79;26783;-75
2021/05/16 02:48:57;;;;;;;13.53;4.33;;;;;;;9.47;100.00;99933.05;1824314;78;26247;-75
2021/05/16 02:51:27;;;;;;;16.07;4.13;;;;;;;9.44;100.00;99935.87;1824196;79;26792;-75
2021/05/16 02:53:56;;;;;;;15.03;4.10;;;;;;;9.45;100.00;99931.98;1824343;79;26251;-75
2021/05/16 02:56:26;;;;;;;17.70;4.23;;;;;;;9.35;100.00;99933.51;1824210;79;26793;-75
2021/05/16 02:58:56;;;;;;;18.87;4.07;;;;;;;9.29;100.00;99936.63;1824238;79;26260;-75
2021/05/16 03:01:26;;;;;;;12.00;3.40;;;;;;;9.40;100.00;99932.05;1824187;79;26824;-75
2021/05/16 03:03:55;;;;;;;19.27;4.87;;;;;;;9.43;100.00;99930.61;1824253;79;26256;-75
2021/05/16 03:06:26;;;;;;;18.63;4.47;;;;;;;9.36;100.00;99932.95;1824153;79;26247;-75
2021/05/16 03:08:56;;;;;;;18.37;5.03;;;;;;;9.37;100.00;99933.22;1824304;79;26344;-75
2021/05/16 03:11:26;;;;;;;17.77;4.77;;;;;;;9.29;100.00;99934.69;1824209;79;26243;-75
2021/05/16 03:13:55;;;;;;;18.30;4.47;;;;;;;9.41;100.00;99928.72;1824337;79;26413;-75
2021/05/16 03:16:25;;;;;;;19.27;4.17;;;;;;;9.48;100.00;99926.38;1824271;79;26726;-75
2021/05/16 03:18:55;;;;;;;17.60;4.07;;;;;;;9.49;100.00;99928.87;1824253;79;26247;-74
2021/05/16 03:21:25;;;;;;;15.17;4.53;;;;;;;9.44;100.00;99925.34;1824354;79;26318;-74
2021/05/16 03:23:55;;;;;;;14.23;4.70;;;;;;;9.46;100.00;99921.69;1824188;79;26251;-75
2021/05/16 03:26:25;;;;;;;20.13;4.57;;;;;;;9.46;100.00;99917.53;1824161;79;26251;-75
2021/05/16 03:28:55;;;;;;;18.00;4.97;;;;;;;9.41;100.00;99919.81;1824309;79;26348;-75
2021/05/16 03:31:25;;;;;;;15.63;4.10;;;;;;;9.55;100.00;99919.89;1824270;79;26659;-75
2021/05/16 03:34:12;;;;;;;21.33;5.33;;;;;;;9.44;100.00;99912.87;1769582;81;33521;-75
2021/05/16 03:36:42;;;;;;;21.73;4.97;;;;;;;9.44;100.00;99910.92;1770089;81;26298;-74
2021/05/16 03:39:11;;;;;;;17.33;4.53;;;;;;;9.46;100.00;99909.22;1770189;81;26823;-75
2021/05/16 03:41:41;;;;;;;18.80;4.90;;;;;;;9.56;100.00;99911.84;1770127;81;26246;-74
2021/05/16 03:44:11;;;;;;;17.03;4.03;;;;;;;9.43;100.00;99925.07;1770070;81;26364;-74
2021/05/16 03:46:41;;;;;;;16.57;4.53;;;;;;;9.53;100.00;99919.38;1769994;81;26730;-74
2021/05/16 03:49:11;;;;;;;21.77;4.70;;;;;;;9.48;100.00;99918.90;1769976;81;26271;-74
2021/05/16 03:51:40;;;;;;;17.27;5.20;;;;;;;9.48;100.00;99917.51;1770095;81;26718;-74
2021/05/16 03:54:10;;;;;;;20.67;5.20;;;;;;;9.37;100.00;99914.61;1769974;81;26270;-74
2021/05/16 03:56:40;;;;;;;20.53;5.37;;;;;;;9.41;100.00;99921.20;1770021;81;26353;-74
2021/05/16 03:59:10;;;;;;;17.40;5.17;;;;;;;9.36;100.00;99923.25;1770008;81;26713;-75
2021/05/16 04:01:40;;;;;;;21.77;5.33;;;;;;;9.32;100.00;99915.27;1770274;80;930692;-74
2021/05/16 04:04:10;;;;;;;18.87;4.77;;;;;;;9.34;100.00;99915.78;1788108;80;26367;-75
2021/05/16 04:06:40;;;;;;;16.37;5.80;;;;;;;9.35;100.00;99923.81;1838770;78;26224;-74
2021/05/16 04:09:10;;;;;;;20.77;4.97;;;;;;;9.48;100.00;99916.69;1840503;78;26655;-74
2021/05/16 04:11:39;;;;;;;21.30;5.10;;;;;;;9.36;100.00;99921.30;1840637;78;26314;-75
2021/05/16 04:14:09;;;;;;;17.70;4.90;;;;;;;9.40;100.00;99924.30;1840541;78;26742;-74
2021/05/16 04:16:39;;;;;;;15.97;5.70;;;;;;;9.38;100.00;99913.50;1840726;78;26313;-74
2021/05/16 04:19:09;;;;;;;18.70;5.70;;;;;;;9.36;100.00;99917.15;1840555;78;26272;-75
2021/05/16 04:21:39;;;;;;;26.83;5.17;;;;;;;9.36;100.00;99921.86;1840555;77;26298;-74
2021/05/16 04:24:10;;;;;;;23.50;5.37;;;;;;;9.35;100.00;99920.20;1840628;78;26294;-75
2021/05/16 04:26:40;;;;;;;16.77;4.23;;;;;;;9.35;100.00;99914.11;1840649;78;26201;-75
2021/05/16 04:29:10;;;;;;;21.47;5.13;;;;;;;9.36;100.00;99921.86;1840536;77;26257;-75
2021/05/16 04:31:40;;;;;;;19.10;4.97;;;;;;;9.38;100.00;99925.97;1840610;78;26660;-75
2021/05/16 04:34:10;;;;;;;13.40;4.97;;;;;;;9.36;100.00;99924.08;1840515;78;26299;-74
2021/05/16 04:36:39;;;;;;;25.33;6.40;;;;;;;9.40;100.00;99919.58;1840670;78;26341;-74
2021/05/16 04:39:09;;;;;;;17.93;5.50;;;;;;;9.49;100.00;99926.09;1840545;78;26220;-75
2021/05/16 04:41:39;;;;;;;16.50;4.27;;;;;;;9.58;100.00;99926.23;1840514;78;26278;-75
2021/05/16 04:44:10;;;;;;;9.47;3.37;;;;;;;9.49;100.00;99929.42;1840518;78;26679;-75
2021/05/16 04:46:39;;;;;;;13.23;4.27;;;;;;;9.36;100.00;99928.23;1840571;78;26716;-75
2021/05/16 04:49:09;;;;;;;12.60;4.73;;;;;;;9.13;100.00;99934.09;1840593;78;26274;-75
2021/05/16 04:51:39;;;;;;;14.43;4.80;;;;;;;9.06;100.00;99931.43;1840608;78;26295;-75
2021/05/16 04:54:09;;;;;;;15.67;5.13;;;;;;;9.12;100.00;99933.81;1840531;78;26663;-75
2021/05/16 04:56:39;;;;;;;19.80;5.43;;;;;;;9.11;100.00;99934.14;1840660;78;26296;-75
2021/05/16 04:59:09;;;;;;;21.03;5.73;;;;;;;9.03;100.00;99936.16;1840537;78;26689;-75
2021/05/16 05:01:41;;;;;;;15.33;4.57;;;;;;;9.02;100.00;99933.98;1840528;78;26327;-75
2021/05/16 05:04:11;;;;;;;18.00;5.20;;;;;;;9.08;100.00;99941.08;1840536;78;26306;-74
2021/05/16 05:06:42;;;;;;;13.57;4.67;;;;;;;9.10;100.00;99934.70;1840588;78;26186;-74
2021/05/16 05:09:11;;;;;;;22.37;4.90;;;;;;;9.17;100.00;99937.08;1840652;78;26282;-74
2021/05/16 05:11:41;;;;;;;15.23;5.50;;;;;;;9.34;100.00;99929.64;1840584;78;26652;-74
2021/05/16 05:14:11;;;;;;;16.57;5.27;;;;;;;9.29;100.00;99930.53;1840548;78;26303;-74
2021/05/16 05:16:41;;;;;;;16.87;5.23;;;;;;;9.27;100.00;99928.64;1840661;78;26259;-74
2021/05/16 05:19:10;;;;;;;17.77;4.93;;;;;;;9.26;100.00;99931.70;1840648;78;26633;-74
2021/05/16 05:21:41;;;;;;;17.00;5.50;;;;;;;9.26;100.00;99931.70;1840686;78;26692;-74
2021/05/16 05:24:12;;;;;;;17.83;6.17;;;;;;;9.32;100.00;99931.34;1840654;78;26209;-74
2021/05/16 05:26:42;;;;;;;20.17;5.37;;;;;;;9.36;100.00;99935.16;1840650;78;26278;-75
2021/05/16 05:29:12;;;;;;;25.80;6.17;;;;;;;9.40;100.00;99935.38;1840693;77;26342;-74
2021/05/16 05:31:43;;;;;;;21.10;5.83;;;;;;;9.44;100.00;99937.81;1840738;78;26699;-74
2021/05/16 05:34:14;;;;;;;17.17;5.53;;;;;;;9.54;100.00;99929.36;1840646;78;26217;-74
2021/05/16 05:36:44;;;;;;;18.13;5.63;;;;;;;9.58;100.00;99929.80;1840637;78;26703;-74
2021/05/16 05:39:14;;;;;;;18.40;6.17;;;;;;;9.60;100.00;99929.52;1840680;78;26242;-74
2021/05/16 05:41:45;;;;;;;18.13;5.60;;;;;;;9.64;100.00;99928.34;1840714;78;26236;-74
2021/05/16 05:44:15;;;;;;;19.93;6.30;;;;;;;9.79;100.00;99926.73;1840757;78;26765;-75
2021/05/16 05:46:45;;;;;;;23.40;6.27;;;;;;;10.00;100.00;99926.64;1840755;78;26379;-74
2021/05/16 05:49:15;;;;;;;20.60;6.13;;;;;;;10.08;100.00;99926.50;1840742;78;26248;-74
2021/05/16 05:51:45;;;;;;;21.63;6.87;;;;;;;10.17;100.00;99925.54;1840610;78;26306;-74
2021/05/16 05:54:14;;;;;;;23.80;6.53;;;;;;;10.28;100.00;99923.38;1840704;78;26279;-75
2021/05/16 05:56:44;;;;;;;14.27;5.87;;;;;;;10.45;100.00;99923.05;1840643;78;26237;-74
2021/05/16 05:59:16;;;;;;;22.60;6.13;;;;;;;10.39;100.00;99919.31;1840644;78;26257;-75
2021/05/16 06:01:47;;;;;;;22.20;5.77;;;;;;;10.42;100.00;99920.08;1840888;78;26271;-74
2021/05/16 06:04:17;;;;;;;19.77;7.10;;;;;;;10.55;100.00;99916.48;1840658;78;26720;-74
2021/05/16 06:06:47;;;;;;;21.13;6.13;;;;;;;10.58;100.00;99919.20;1840643;78;26284;-75
2021/05/16 06:09:17;;;;;;;17.83;5.43;;;;;;;10.65;100.00;99914.08;1840611;78;26228;-75
2021/05/16 06:11:46;;;;;;;17.37;5.80;;;;;;;10.70;100.00;99916.73;1840628;78;26283;-74
2021/05/16 06:14:16;;;;;;;17.03;5.97;;;;;;;10.82;100.00;99905.95;1840547;78;26220;-74
2021/05/16 06:16:46;;;;;;;16.93;5.13;;;;;;;10.98;100.00;99910.04;1840599;78;26608;-74
2021/05/16 06:19:16;;;;;;;22.80;5.40;;;;;;;10.96;100.00;99915.90;1840716;78;26205;-74
2021/05/16 06:21:46;;;;;;;16.80;4.70;;;;;;;10.94;100.00;99911.80;1840642;78;26743;-75
2021/05/16 06:24:15;;;;;;;13.67;4.67;;;;;;;10.94;100.00;99910.41;1840606;78;26295;-75
2021/05/16 06:26:46;;;;;;;16.03;3.90;;;;;;;10.96;100.00;99908.95;1840611;78;26217;-74
2021/05/16 06:29:16;;;;;;;14.80;4.23;;;;;;;11.02;100.00;99909.67;1840603;77;26278;-75
2021/05/16 06:31:46;;;;;;;15.27;3.60;;;;;;;11.01;100.00;99908.02;1840766;78;26241;-74
2021/05/16 06:34:16;;;;;;;11.83;3.30;;;;;;;11.12;100.00;99907.25;1840835;78;26233;-75
2021/05/16 06:36:46;;;;;;;10.70;2.87;;;;;;;11.21;100.00;99908.95;1840662;78;26267;-75
2021/05/16 06:39:15;;;;;;;9.03;2.87;;;;;;;11.23;100.00;99900.31;1840705;78;26652;-75
2021/05/16 06:41:46;;;;;;;8.30;2.93;;;;;;;11.30;100.00;99902.09;1840726;78;26216;-75
2021/05/16 06:44:15;;;;;;;7.50;2.67;;;;;;;11.43;100.00;99902.61;1840802;78;26391;-75
2021/05/16 06:46:45;;;;;;;8.80;2.60;;;;;;;11.43;100.00;99899.27;1840700;78;26291;-74
2021/05/16 06:49:15;;;;;;;9.57;2.50;;;;;;;11.48;100.00;99896.11;1840634;78;26248;-74
2021/05/16 06:51:45;;;;;;;7.93;2.53;;;;;;;11.65;100.00;99900.42;1840734;78;26256;-74
2021/05/16 06:54:15;;;;;;;9.87;2.63;;;;;;;11.68;100.00;99896.44;1840569;78;26217;-75
2021/05/16 06:56:45;;;;;;;5.70;2.40;;;;;;;11.64;100.00;99898.20;1840867;78;26699;-75
2021/05/16 06:59:15;;;;;;;11.13;2.73;;;;;;;11.54;100.00;99899.86;1840914;78;26372;-74
2021/05/16 07:01:45;;;;;;;6.83;2.10;;;;;;;11.50;100.00;99898.03;1840605;78;26326;-75
2021/05/16 07:04:15;;;;;;;6.03;2.03;;;;;;;11.45;100.00;99901.75;1840601;78;26851;-74
2021/05/16 07:06:45;;;;;;;7.27;2.10;;;;;;;11.63;100.00;99902.72;1840603;78;26240;-74
2021/05/16 07:09:14;;;;;;;5.87;1.93;;;;;;;11.70;100.00;99903.91;1840708;78;26352;-74
2021/05/16 07:11:44;;;;;;;6.27;1.80;;;;;;;11.85;100.00;99895.20;1840694;78;26727;-75
2021/05/16 07:14:14;;;;;;;7.43;2.03;;;;;;;11.95;100.00;99893.30;1840573;78;26310;-74
2021/05/16 07:16:44;;;;;;;5.00;1.67;;;;;;;11.99;100.00;99892.92;1840719;78;26217;-74
2021/05/16 07:19:14;;;;;;;6.13;1.70;;;;;;;12.01;100.00;99899.00;1840593;78;26287;-75
2021/05/16 07:21:44;;;;;;;5.30;1.80;;;;;;;11.85;100.00;99894.41;1840616;78;26205;-75
2021/05/16 07:24:14;;;;;;;6.13;1.87;;;;;;;11.88;100.00;99892.38;1840592;78;26249;-74
2021/05/16 07:26:44;;;;;;;7.30;1.83;;;;;;;11.99;100.00;99886.78;1840706;78;26714;-74
2021/05/16 07:29:14;;;;;;;3.67;1.60;;;;;;;12.12;100.00;99892.84;1840695;78;26389;-74
2021/05/16 07:31:44;;;;;;;6.97;2.90;;;;;;;12.15;100.00;99883.84;1838748;78;26319;-75
2021/05/16 07:34:13;;;;;;;5.87;1.67;;;;;;;12.29;100.00;99892.11;1840603;78;26216;-74
2021/05/16 07:36:43;;;;;;;5.33;2.00;;;;;;;12.39;100.00;99893.23;1840599;78;26231;-74
2021/05/16 07:39:13;;;;;;;5.97;1.90;;;;;;;12.41;100.00;99884.58;1840599;78;26639;-74
2021/05/16 07:41:43;;;;;;;9.30;2.30;;;;;;;12.41;100.00;99885.97;1840538;78;26208;-74
2021/05/16 07:44:13;;;;;;;6.27;2.07;;;;;;;12.44;100.00;99880.57;1840653;78;26282;-74
2021/05/16 07:46:42;;;;;;;3.90;1.57;;;;;;;12.40;100.00;99874.00;1840679;78;26708;-74
2021/05/16 07:49:12;;;;;;;5.40;1.97;;;;;;;12.60;100.00;99874.81;1840855;78;26714;-74
2021/05/16 07:51:42;;;;;;;7.40;2.07;;;;;;;13.01;100.00;99865.23;1840701;78;26220;-74
2021/05/16 07:54:12;;;;;;;5.50;1.50;;;;;;;13.26;100.00;99865.89;1840602;78;26683;-74
2021/05/16 07:56:42;;;;;;;6.37;2.27;;;;;;;13.37;100.00;99864.98;1840662;78;26643;-74
2021/05/16 07:59:12;;;;;;;7.87;1.90;;;;;;;13.30;100.00;99860.48;1840614;78;26208;-74
2021/05/16 08:01:41;;;;;;;5.53;1.57;;;;;;;13.27;100.00;99854.95;1840703;78;26671;-73
2021/05/16 08:04:11;;;;;;;6.90;1.83;;;;;;;13.45;100.00;99844.05;1840575;78;26781;-74
2021/05/16 08:06:41;;;;;;;6.03;1.53;;;;;;;13.78;100.00;99853.31;1840626;78;26663;-74
2021/05/16 08:09:11;;;;;;;6.93;2.73;;;;;;;13.67;100.00;99845.28;1840672;78;26216;-73
2021/05/16 08:11:41;;;;;;;11.43;2.23;;;;;;;13.71;100.00;99847.40;1840729;78;26220;-75
2021/05/16 08:14:10;;;;;;;9.37;2.00;;;;;;;13.67;100.00;99843.88;1840648;78;26632;-74
2021/05/16 08:16:41;;;;;;;7.40;1.90;;;;;;;13.92;100.00;99848.34;1840717;78;26302;-74
2021/05/16 08:19:11;;;;;;;5.63;1.53;;;;;;;13.82;100.00;99838.95;1840785;78;26305;-75
2021/05/16 08:21:41;;;;;;;8.47;2.00;;;;;;;13.91;100.00;99839.14;1840773;78;26208;-74
2021/05/16 08:24:13;;;;;;;6.03;1.80;;;;;;;13.94;100.00;99841.30;1840747;78;26208;-75
2021/05/16 08:26:43;;;;;;;7.13;2.07;;;;;;;13.88;100.00;99835.63;1840629;78;26628;-74
2021/05/16 08:29:14;;;;;;;7.47;2.17;;;;;;;13.76;100.00;99838.29;1840714;78;26220;-73
2021/05/16 08:31:45;;;;;;;7.77;2.30;;;;;;;13.82;100.00;99834.76;1840494;78;26333;-75
2021/05/16 08:34:15;;;;;;;6.57;1.87;;;;;;;13.89;100.00;99836.45;1840588;78;26717;-74
2021/05/16 08:36:45;;;;;;;5.03;1.40;;;;;;;13.93;100.00;99834.64;1840559;78;26215;-73
2021/05/16 08:39:15;;;;;;;4.80;1.53;;;;;;;14.00;100.00;99827.95;1840640;78;26208;-74
2021/05/16 08:41:46;;;;;;;6.03;1.80;;;;;;;14.15;100.00;99828.83;1840760;78;26683;-74
2021/05/16 08:44:18;;;;;;;4.97;1.80;;;;;;;14.38;100.00;99830.23;1840790;78;26506;-73
2021/05/16 08:46:48;;;;;;;5.60;1.67;;;;;;;14.54;100.00;99831.91;1840673;78;26297;-73
2021/05/16 08:49:19;;;;;;;3.70;1.27;;;;;;;14.77;100.00;99830.44;1840613;78;26220;-75
2021/05/16 08:51:50;;;;;;;6.47;1.20;;;;;;;14.74;100.00;99825.53;1840826;78;26741;-73
2021/05/16 08:54:22;;;;;;;4.60;1.33;;;;;;;14.64;100.00;99823.12;1840639;78;26208;-73
2021/05/16 08:56:53;;;;;;;4.87;1.43;;;;;;;14.76;100.00;99823.81;1840691;78;26290;-73
2021/05/16 08:59:24;;;;;;;5.07;1.03;;;;;;;14.93;100.00;99820.30;1840698;78;26289;-74
2021/05/16 09:01:56;;;;;;;5.00;1.10;;;;;;;15.07;100.00;99820.05;1840573;78;26680;-74
2021/05/16 09:04:33;;;;;;;3.77;1.07;;;;;;;15.15;100.00;99819.73;1840656;78;26224;-73
2021/05/16 09:07:04;;;;;;;4.30;1.03;;;;;;;14.95;100.00;99816.60;1840792;78;26651;-73
2021/05/16 09:09:37;;;;;;;5.03;1.53;;;;;;;15.19;100.00;99813.13;1840705;78;26224;-73
2021/05/16 09:12:12;;;;;;;4.27;1.00;;;;;;;15.37;100.00;99816.02;1840579;78;26260;-73
2021/05/16 09:14:49;;;;;;;3.67;1.10;;;;;;;15.76;100.00;99814.70;1840600;78;26282;-73
2021/05/16 09:17:31;;;;;;;3.77;0.90;;;;;;;15.60;100.00;99811.50;1840527;78;26215;-73
2021/05/16 09:20:04;;;;;;;3.27;0.90;;;;;;;15.57;100.00;99806.59;1840620;78;26196;-73
2021/05/16 09:22:40;;;;;;;3.40;1.00;;;;;;;15.58;100.00;99796.44;1840618;78;26301;-73
2021/05/16 09:25:18;;;;;;;3.83;1.00;;;;;;;15.41;100.00;99802.98;1840599;78;26211;-73
2021/05/16 09:27:50;;;;;;;4.03;0.83;;;;;;;15.46;100.00;99808.38;1840762;78;26639;-73
2021/05/16 09:30:29;;;;;;;3.20;0.70;;;;;;;15.23;100.00;99809.87;1840698;78;26709;-74
2021/05/16 09:33:02;;;;;;;2.37;0.90;;;;;;;15.15;100.00;99810.77;1840540;78;26267;-73
2021/05/16 09:35:44;;;;;;;1.87;1.20;;;;;;;14.94;100.00;99811.34;1840595;78;26308;-73
2021/05/16 09:38:16;;;;;;;2.17;0.67;;;;;;;14.89;100.00;99813.75;1840596;78;26289;-73
2021/05/16 09:40:48;;;;;;;2.80;0.53;;;;;;;15.15;100.00;99809.38;1840589;78;26657;-73
2021/05/16 09:43:24;;;;;;;1.40;0.57;;;;;;;15.18;100.00;99814.30;1840752;78;26313;-73
2021/05/16 09:45:57;;;;;;;3.43;0.70;;;;;;;15.30;100.00;99809.34;1840685;78;26281;-73
2021/05/16 09:48:30;;;;;;;4.30;0.70;;;;;;;15.23;100.00;99809.87;1840577;78;26260;-73
2021/05/16 09:51:26;;;;;;;2.67;0.80;;;;;;;15.23;100.00;99809.87;1840551;78;26651;-73
2021/05/16 09:54:02;;;;;;;2.80;0.63;;;;;;;15.34;100.00;99806.92;1838855;78;26290;-73
2021/05/16 09:56:34;;;;;;;2.37;0.80;;;;;;;15.45;100.00;99803.11;1840630;78;26317;-73
2021/05/16 09:59:06;;;;;;;2.17;0.80;;;;;;;15.29;100.00;99803.50;1840621;78;26294;-73
2021/05/16 10:01:37;;;;;;;2.87;0.87;;;;;;;15.36;100.00;99805.98;1840672;78;26689;-73
2021/05/16 10:04:09;;;;;;;1.33;0.60;;;;;;;15.26;100.00;99806.42;1840570;78;26781;-74
2021/05/16 10:06:38;;;;;;;4.40;1.20;;;;;;;15.32;100.00;99809.23;1840704;78;26309;-73
2021/05/16 10:09:08;;;;;;;3.10;0.87;;;;;;;15.24;100.00;99812.09;1840688;78;26670;-74
2021/05/16 10:11:40;;;;;;;3.37;1.00;;;;;;;15.48;100.00;99811.66;1840721;78;26277;-74
2021/05/16 10:14:13;;;;;;;2.77;1.17;;;;;;;14.87;100.00;99827.27;1840694;78;26667;-73
2021/05/16 10:16:47;;;;;;;2.77;0.70;;;;;;;14.30;100.00;99837.22;1840708;78;26232;-75
2021/05/16 10:19:19;;;;;;;2.33;0.63;;;;;;;13.61;100.00;99845.19;1840690;78;26216;-74
2021/05/16 10:22:07;;;;;;;2.97;0.60;;;;;;;13.36;100.00;99852.17;1840706;78;26733;-74
2021/05/16 10:24:41;;;;;;;2.57;0.90;;;;;;;13.26;100.00;99853.34;1840275;78;26223;-74
2021/05/16 10:27:20;;;;;;;3.27;0.87;;;;;;;13.31;100.00;99854.55;1840656;78;26216;-75
2021/05/16 10:29:52;;;;;;;3.33;0.60;;;;;;;13.20;100.00;99861.61;1840685;78;26196;-75
2021/05/16 10:32:24;;;;;;;1.13;0.50;;;;;;;13.13;100.00;99852.92;1840702;77;26267;-75
2021/05/16 10:34:59;;;;;;;1.80;0.50;;;;;;;13.15;100.00;99865.38;1840750;78;26199;-74
2021/05/16 10:37:48;;;;;;;0.60;0.50;;;;;;;13.03;100.00;99867.12;1840677;78;26667;-75
2021/05/16 10:40:32;;;;;;;0.60;0.40;;;;;;;12.97;100.00;99861.45;1840814;78;26414;-75
2021/05/16 10:43:04;;;;;;;0.67;0.40;;;;;;;12.94;100.00;99858.75;1840679;78;26228;-75
2021/05/16 10:45:39;;;;;;;1.20;0.63;;;;;;;12.92;100.00;99857.45;1840740;78;26212;-74
2021/05/16 10:48:11;;;;;;;1.67;0.60;;;;;;;13.00;100.00;99862.22;1840651;78;26292;-74
2021/05/16 10:51:06;;;;;;;3.40;0.77;;;;;;;12.81;100.00;99858.31;1840748;78;26693;-74
2021/05/16 10:53:43;;;;;;;4.13;0.90;;;;;;;12.96;100.00;99857.05;1840803;78;26282;-74
2021/05/16 10:56:23;;;;;;;1.70;0.70;;;;;;;13.01;100.00;99855.47;1840791;78;26294;-74
2021/05/16 10:58:56;;;;;;;1.83;0.80;;;;;;;12.96;100.00;99856.47;1840859;78;26216;-74
2021/05/16 11:01:35;;;;;;;1.30;0.83;;;;;;;13.08;100.00;99855.27;1840935;78;26274;-75
2021/05/16 11:04:08;;;;;;;2.47;1.07;;;;;;;12.90;100.00;99854.16;1840704;78;26235;-74
2021/05/16 11:06:58;;;;;;;1.43;0.30;;;;;;;12.85;100.00;99860.70;1840654;78;26252;-74
2021/05/16 11:09:36;;;;;;;1.77;0.40;;;;;;;12.92;100.00;99854.66;1840803;78;26250;-74
2021/05/16 11:12:07;;;;;;;0.90;0.50;;;;;;;12.72;100.00;99856.07;1840841;78;26266;-75
2021/05/16 11:14:40;;;;;;;1.10;0.50;;;;;;;12.83;100.00;99851.03;1840704;78;26224;-75
2021/05/16 11:17:16;;;;;;;1.17;0.50;;;;;;;12.85;100.00;99846.77;1840707;78;26298;-74
2021/05/16 11:19:46;;;;;;;1.33;0.93;;;;;;;13.14;100.00;99847.56;1840059;78;26706;-75
2021/05/16 11:22:19;;;;;;;1.53;0.60;;;;;;;12.72;100.00;99842.14;1840749;78;26286;-74
2021/05/16 11:24:51;;;;;;;0.53;0.40;;;;;;;12.92;100.00;99843.52;1840820;78;26663;-75
2021/05/16 11:27:24;;;;;;;1.10;0.60;;;;;;;12.93;100.00;99832.59;1840832;78;26628;-75
2021/05/16 11:29:57;;;;;;;2.03;0.60;;;;;;;13.07;100.00;99827.13;1840751;78;26286;-75
2021/05/16 11:32:30;;;;;;;0.67;0.40;;;;;;;13.35;100.00;99827.64;1840690;77;26236;-75
2021/05/16 11:35:17;;;;;;;1.80;0.67;;;;;;;13.67;100.00;99824.92;1840536;78;26220;-74
2021/05/16 11:37:49;;;;;;;2.17;0.77;;;;;;;13.81;100.00;99826.13;1840578;78;26636;-75
2021/05/16 11:40:24;;;;;;;2.83;0.70;;;;;;;13.75;100.00;99826.05;1840543;78;26266;-75
2021/05/16 11:43:21;;;;;;;1.70;0.57;;;;;;;13.44;100.00;99825.67;1840414;78;26692;-75